createdAt,value
2016-08-17T00:00:05.851Z,999.74
2016-08-17T00:00:28.853Z,999.91
2016-08-17T00:00:50.759Z,1000.03
2016-08-17T00:01:12.734Z,999.88
2016-08-17T00:01:34.544Z,999.85
2016-08-17T00:02:01.141Z,1000.12
2016-08-17T00:02:22.999Z,1000.33
2016-08-17T00:02:50.550Z,1000.05
2016-08-17T00:03:12.487Z,1000.07
2016-08-17T00:03:39.282Z,999.73
2016-08-17T00:04:27.578Z,1000.11
2016-08-17T00:05:16.826Z,999.94
2016-08-17T00:05:43.533Z,999.85
2016-08-17T00:06:10.057Z,999.97
2016-08-17T00:06:58.303Z,1000.03
2016-08-17T00:07:20.248Z,999.98
2016-08-17T00:07:42.069Z,999.80
2016-08-17T00:08:04.022Z,999.71
2016-08-17T00:08:35.506Z,1000.00
2016-08-17T00:09:02.001Z,999.85
2016-08-17T00:09:23.750Z,999.93
2016-08-17T00:09:50.302Z,999.81
2016-08-17T00:10:12.056Z,999.96
2016-08-17T00:10:33.793Z,1000.11
2016-08-17T00:11:00.308Z,999.98
2016-08-17T00:11:22.061Z,1000.03
2016-08-17T00:11:43.786Z,999.90
2016-08-17T00:12:05.597Z,1000.19
2016-08-17T00:12:27.441Z,1000.18
2016-08-17T00:12:49.479Z,999.99
2016-08-17T00:13:11.315Z,999.93
2016-08-17T00:13:33.062Z,999.71
2016-08-17T00:13:54.814Z,999.85
2016-08-17T00:14:16.586Z,999.86
2016-08-17T00:15:09.709Z,999.93
2016-08-17T00:15:31.575Z,999.80
2016-08-17T00:15:53.506Z,1000.21
2016-08-17T00:16:16.474Z,999.92
2016-08-17T00:16:38.314Z,1000.09
2016-08-17T00:17:05.005Z,999.83
2016-08-17T00:17:26.928Z,999.93
2016-08-17T00:17:49.752Z,999.98
2016-08-17T00:18:11.689Z,999.91
2016-08-17T00:18:33.748Z,999.76
2016-08-17T00:18:55.517Z,999.97
2016-08-17T00:19:17.511Z,999.84
2016-08-17T00:19:39.503Z,1000.09
2016-08-17T00:20:01.525Z,1000.05
2016-08-17T00:20:28.259Z,999.99
2016-08-17T00:20:50.431Z,999.79
2016-08-17T00:21:12.374Z,999.91
2016-08-17T00:21:35.366Z,999.96
2016-08-17T00:21:58.170Z,999.81
2016-08-17T00:22:20.089Z,999.95
2016-08-17T00:23:08.615Z,1000.04
2016-08-17T00:23:30.453Z,999.98
2016-08-17T00:23:58.142Z,999.80
2016-08-17T00:24:20.070Z,999.87
2016-08-17T00:25:14.443Z,999.95
2016-08-17T00:25:36.297Z,999.76
2016-08-17T00:26:34.118Z,999.93
2016-08-17T00:27:53.677Z,999.77
2016-08-17T00:28:24.952Z,999.79
2016-08-17T00:28:46.710Z,1000.02
2016-08-17T00:29:08.471Z,999.80
2016-08-17T00:29:35.006Z,999.80
2016-08-17T00:31:00.407Z,1000.16
2016-08-17T00:31:26.932Z,1000.05
2016-08-17T00:32:15.183Z,1000.02
2016-08-17T00:33:42.448Z,999.97
2016-08-17T00:34:04.225Z,999.94
2016-08-17T00:34:26.046Z,1000.06
2016-08-17T00:34:48.026Z,1000.18
2016-08-17T00:35:12.771Z,1000.06
2016-08-17T00:35:34.716Z,1000.01
2016-08-17T00:36:01.460Z,1000.00
2016-08-17T00:36:27.977Z,999.80
2016-08-17T00:36:50.764Z,1000.18
2016-08-17T00:37:53.463Z,999.88
2016-08-17T00:38:20.022Z,999.89
2016-08-17T00:38:41.893Z,999.81
2016-08-17T00:39:03.811Z,1000.01
2016-08-17T00:39:25.667Z,999.76
2016-08-17T00:39:47.492Z,1000.04
2016-08-17T00:40:14.040Z,1000.23
2016-08-17T00:40:35.783Z,999.97
2016-08-17T00:41:02.282Z,999.81
2016-08-17T00:41:51.579Z,1000.21
2016-08-17T00:42:13.464Z,999.96
2016-08-17T00:42:36.584Z,999.88
2016-08-17T00:42:58.452Z,1000.01
2016-08-17T00:43:25.170Z,999.78
2016-08-17T00:43:51.931Z,999.85
2016-08-17T00:44:13.845Z,1000.18
2016-08-17T00:44:40.483Z,1000.02
2016-08-17T00:45:02.243Z,1000.01
2016-08-17T00:45:28.759Z,999.85
2016-08-17T00:45:50.511Z,999.94
2016-08-17T00:46:42.817Z,999.90
2016-08-17T00:47:36.946Z,1000.24
2016-08-17T00:48:04.465Z,1000.10
2016-08-17T00:48:26.239Z,1000.01
2016-08-17T00:48:48.017Z,1000.16
2016-08-17T00:49:09.747Z,1000.02
2016-08-17T00:49:36.265Z,999.72
2016-08-17T00:49:59.174Z,999.98
2016-08-17T00:50:21.005Z,1000.20
2016-08-17T00:50:42.842Z,999.96
2016-08-17T00:51:50.799Z,999.84
2016-08-17T00:52:17.299Z,999.97
2016-08-17T00:52:39.067Z,999.84
2016-08-17T00:53:02.857Z,999.97
2016-08-17T00:53:35.142Z,999.83
2016-08-17T00:55:05.826Z,1000.06
2016-08-17T00:55:27.630Z,999.90
2016-08-17T00:55:54.193Z,1000.12
2016-08-17T00:56:20.730Z,1000.25
2016-08-17T00:56:42.550Z,1000.13
2016-08-17T00:57:04.340Z,999.96
2016-08-17T00:57:30.871Z,999.67
2016-08-17T00:57:57.393Z,999.72
2016-08-17T00:58:19.170Z,999.95
2016-08-17T00:58:45.720Z,1000.13
2016-08-17T00:59:44.067Z,1000.16
2016-08-17T01:00:06.822Z,1000.17
2016-08-17T01:00:59.998Z,999.88
2016-08-17T01:01:21.768Z,999.61
2016-08-17T01:01:48.324Z,999.97
2016-08-17T01:02:14.837Z,999.99
2016-08-17T01:02:41.368Z,999.69
2016-08-17T01:03:03.143Z,999.82
2016-08-17T01:03:32.380Z,999.86
2016-08-17T01:03:54.144Z,999.92
2016-08-17T01:04:15.962Z,999.77
2016-08-17T01:04:42.477Z,1000.02
2016-08-17T01:05:32.883Z,999.99
2016-08-17T01:06:04.181Z,999.84
2016-08-17T01:06:59.247Z,999.80
2016-08-17T01:07:21.101Z,999.92
2016-08-17T01:07:42.937Z,999.82
2016-08-17T01:08:06.821Z,1000.26
2016-08-17T01:08:34.385Z,1000.02
2016-08-17T01:08:57.187Z,999.91
2016-08-17T01:09:25.760Z,1000.02
2016-08-17T01:09:47.539Z,999.82
2016-08-17T01:10:14.059Z,999.57
2016-08-17T01:10:35.834Z,999.86
2016-08-17T01:10:58.598Z,999.85
2016-08-17T01:11:20.582Z,999.99
2016-08-17T01:11:42.409Z,999.96
2016-08-17T01:12:08.926Z,999.74
2016-08-17T01:12:40.210Z,999.83
2016-08-17T01:13:04.749Z,999.77
2016-08-17T01:14:41.222Z,999.91
2016-08-17T01:15:30.512Z,999.96
2016-08-17T01:15:52.306Z,999.71
2016-08-17T01:16:15.107Z,999.64
2016-08-17T01:17:03.414Z,999.54
2016-08-17T01:17:57.533Z,999.74
2016-08-17T01:18:24.111Z,999.73
2016-08-17T01:18:51.820Z,999.74
2016-08-17T01:19:14.746Z,999.82
2016-08-17T01:19:36.644Z,999.73
2016-08-17T01:20:29.896Z,999.65
2016-08-17T01:21:19.421Z,999.67
2016-08-17T01:21:47.052Z,999.81
2016-08-17T01:22:13.680Z,999.74
2016-08-17T01:22:40.331Z,999.81
2016-08-17T01:23:03.241Z,999.87
2016-08-17T01:23:26.010Z,999.68
2016-08-17T01:23:52.530Z,999.68
2016-08-17T01:24:20.063Z,999.43
2016-08-17T01:24:43.845Z,999.64
2016-08-17T01:25:05.639Z,999.70
2016-08-17T01:25:30.153Z,999.85
2016-08-17T01:26:01.450Z,999.67
2016-08-17T01:26:24.211Z,999.71
2016-08-17T01:27:12.486Z,999.68
2016-08-17T01:27:34.233Z,999.64
2016-08-17T01:27:55.994Z,999.71
2016-08-17T01:28:54.971Z,999.87
2016-08-17T01:29:17.030Z,999.63
2016-08-17T01:29:43.759Z,999.99
2016-08-17T01:30:10.369Z,999.29
2016-08-17T01:30:32.179Z,999.72
2016-08-17T01:30:53.920Z,999.61
2016-08-17T01:31:15.725Z,999.59
2016-08-17T01:31:42.255Z,999.89
2016-08-17T01:32:32.509Z,999.58
2016-08-17T01:32:55.277Z,999.81
2016-08-17T01:33:27.548Z,999.55
2016-08-17T01:33:54.175Z,999.77
2016-08-17T01:34:20.836Z,999.42
2016-08-17T01:34:47.434Z,999.57
2016-08-17T01:35:09.454Z,999.77
2016-08-17T01:35:36.033Z,999.73
2016-08-17T01:35:57.965Z,999.52
2016-08-17T01:36:30.337Z,999.24
2016-08-17T01:36:53.328Z,999.45
2016-08-17T01:37:16.167Z,999.88
2016-08-17T01:38:31.156Z,999.42
2016-08-17T01:38:57.834Z,999.35
2016-08-17T01:39:56.377Z,999.86
2016-08-17T01:40:19.316Z,999.59
2016-08-17T01:40:45.993Z,999.54
2016-08-17T01:41:12.643Z,999.48
2016-08-17T01:41:39.391Z,999.61
2016-08-17T01:42:08.722Z,1000.11
2016-08-17T01:42:31.628Z,999.62
2016-08-17T01:42:58.206Z,999.64
2016-08-17T01:43:24.742Z,999.51
2016-08-17T01:43:47.517Z,999.83
2016-08-17T01:44:40.530Z,999.96
2016-08-17T01:45:02.299Z,999.69
2016-08-17T01:45:24.055Z,999.42
2016-08-17T01:45:45.849Z,999.56
2016-08-17T01:46:12.403Z,999.64
2016-08-17T01:46:34.159Z,999.77
2016-08-17T01:47:00.723Z,999.51
2016-08-17T01:48:04.053Z,999.76
2016-08-17T01:48:57.101Z,999.73
2016-08-17T01:49:47.604Z,999.68
2016-08-17T01:50:14.282Z,999.49
2016-08-17T01:50:37.206Z,999.67
2016-08-17T01:51:41.662Z,999.51
2016-08-17T01:52:04.781Z,999.56
2016-08-17T01:52:26.589Z,999.69
2016-08-17T01:53:03.631Z,999.46
2016-08-17T01:54:06.403Z,999.53
2016-08-17T01:54:28.461Z,999.49
2016-08-17T01:54:55.066Z,999.50
2016-08-17T01:55:49.314Z,999.69
2016-08-17T01:56:20.592Z,999.64
2016-08-17T01:56:42.473Z,999.58
2016-08-17T01:57:05.330Z,999.50
2016-08-17T01:57:27.114Z,999.72
2016-08-17T01:57:55.634Z,999.28
2016-08-17T01:58:53.450Z,999.89
2016-08-17T01:59:15.193Z,999.45
2016-08-17T01:59:38.131Z,999.40
2016-08-17T02:00:00.052Z,999.50
2016-08-17T02:00:22.011Z,999.73
2016-08-17T02:00:44.816Z,999.53
2016-08-17T02:01:11.514Z,999.46
2016-08-17T02:01:33.496Z,999.58
2016-08-17T02:02:21.861Z,999.26
2016-08-17T02:02:43.769Z,999.44
2016-08-17T02:04:19.211Z,999.59
2016-08-17T02:04:41.000Z,999.55
2016-08-17T02:05:02.768Z,999.48
2016-08-17T02:06:10.116Z,999.51
2016-08-17T02:08:08.266Z,999.42
2016-08-17T02:08:35.840Z,999.34
2016-08-17T02:09:03.373Z,999.32
2016-08-17T02:09:30.917Z,999.31
2016-08-17T02:09:58.430Z,999.43
2016-08-17T02:10:21.213Z,999.69
2016-08-17T02:10:43.035Z,999.55
2016-08-17T02:11:05.790Z,999.27
2016-08-17T02:11:32.312Z,999.48
2016-08-17T02:11:55.193Z,999.38
2016-08-17T02:12:20.060Z,999.31
2016-08-17T02:12:47.594Z,999.52
2016-08-17T02:13:10.476Z,999.30
2016-08-17T02:13:37.167Z,999.58
2016-08-17T02:14:03.822Z,999.37
2016-08-17T02:14:31.344Z,999.27
2016-08-17T02:14:53.149Z,999.35
2016-08-17T02:15:19.665Z,999.67
2016-08-17T02:15:41.424Z,999.67
2016-08-17T02:16:06.104Z,999.44
2016-08-17T02:16:31.462Z,999.39
2016-08-17T02:16:53.235Z,999.21
2016-08-17T02:17:41.492Z,999.53
2016-08-17T02:18:08.004Z,999.39
2016-08-17T02:18:29.762Z,999.37
2016-08-17T02:18:51.514Z,999.71
2016-08-17T02:19:13.253Z,999.33
2016-08-17T02:19:35.008Z,999.41
2016-08-17T02:19:56.896Z,999.51
2016-08-17T02:20:18.874Z,999.52
2016-08-17T02:20:40.640Z,999.53
2016-08-17T02:21:02.636Z,999.33
2016-08-17T02:21:24.657Z,999.32
2016-08-17T02:21:47.556Z,999.53
2016-08-17T02:22:09.300Z,999.60
2016-08-17T02:22:33.129Z,999.38
2016-08-17T02:22:55.908Z,999.45
2016-08-17T02:23:22.475Z,999.75
2016-08-17T02:24:20.985Z,999.51
2016-08-17T02:24:42.951Z,999.44
2016-08-17T02:25:04.900Z,999.51
2016-08-17T02:25:26.747Z,999.66
2016-08-17T02:25:48.549Z,999.42
2016-08-17T02:26:15.348Z,999.78
2016-08-17T02:26:38.271Z,999.52
2016-08-17T02:27:04.853Z,999.61
2016-08-17T02:27:26.592Z,999.76
2016-08-17T02:27:48.357Z,999.64
2016-08-17T02:28:11.256Z,999.44
2016-08-17T02:28:33.005Z,999.44
2016-08-17T02:28:54.924Z,999.69
2016-08-17T02:29:21.494Z,999.64
2016-08-17T02:29:43.344Z,999.37
2016-08-17T02:30:05.082Z,999.63
2016-08-17T02:30:26.845Z,999.41
2016-08-17T02:31:54.382Z,999.40
2016-08-17T02:32:21.117Z,999.44
2016-08-17T02:32:48.830Z,999.27
2016-08-17T02:33:20.134Z,999.47
2016-08-17T02:33:46.648Z,999.55
2016-08-17T02:34:17.924Z,999.25
2016-08-17T02:34:39.666Z,999.57
2016-08-17T02:35:01.421Z,999.69
2016-08-17T02:35:23.161Z,999.33
2016-08-17T02:35:44.895Z,999.46
2016-08-17T02:36:06.645Z,999.46
2016-08-17T02:36:28.563Z,999.61
2016-08-17T02:36:50.477Z,999.45
2016-08-17T02:37:13.668Z,999.49
2016-08-17T02:37:35.593Z,999.48
2016-08-17T02:37:57.498Z,999.69
2016-08-17T02:38:19.261Z,999.49
2016-08-17T02:38:40.982Z,999.36
2016-08-17T02:39:07.651Z,999.50
2016-08-17T02:39:30.451Z,999.52
2016-08-17T02:39:57.046Z,999.43
2016-08-17T02:40:18.902Z,999.45
2016-08-17T02:40:40.877Z,999.36
2016-08-17T02:41:07.533Z,999.34
2016-08-17T02:41:29.412Z,999.31
2016-08-17T02:41:51.339Z,999.50
2016-08-17T02:42:17.851Z,999.41
2016-08-17T02:42:39.782Z,999.63
2016-08-17T02:43:01.592Z,999.37
2016-08-17T02:43:23.376Z,999.61
2016-08-17T02:43:49.980Z,999.71
2016-08-17T02:44:12.797Z,999.49
2016-08-17T02:44:34.547Z,999.43
2016-08-17T02:44:56.400Z,999.39
2016-08-17T02:45:23.012Z,999.60
2016-08-17T02:45:44.755Z,999.60
2016-08-17T02:46:34.167Z,999.36
2016-08-17T02:46:56.996Z,999.41
2016-08-17T02:47:56.802Z,999.46
2016-08-17T02:48:18.593Z,999.30
2016-08-17T02:48:45.093Z,999.50
2016-08-17T02:49:06.848Z,999.59
2016-08-17T02:49:38.122Z,999.67
2016-08-17T02:49:59.887Z,999.40
2016-08-17T02:50:21.680Z,999.40
2016-08-17T02:50:43.566Z,999.33
2016-08-17T02:51:06.446Z,999.44
2016-08-17T02:51:28.216Z,999.42
2016-08-17T02:51:54.743Z,999.61
2016-08-17T02:52:16.513Z,999.40
2016-08-17T02:52:39.306Z,999.47
2016-08-17T02:53:01.173Z,999.53
2016-08-17T02:53:23.135Z,999.58
2016-08-17T02:53:44.923Z,999.24
2016-08-17T02:54:06.940Z,999.47
2016-08-17T02:54:28.685Z,999.78
2016-08-17T02:54:51.656Z,999.38
2016-08-17T02:55:18.185Z,999.46
2016-08-17T02:55:44.895Z,999.36
2016-08-17T02:56:06.807Z,999.44
2016-08-17T02:56:28.716Z,999.35
2016-08-17T02:56:50.843Z,999.37
2016-08-17T02:57:13.797Z,999.23
2016-08-17T02:57:40.387Z,999.60
2016-08-17T02:58:03.216Z,999.31
2016-08-17T02:58:25.051Z,999.36
2016-08-17T02:58:47.863Z,999.68
2016-08-17T02:59:09.662Z,999.28
2016-08-17T02:59:31.403Z,999.33
2016-08-17T02:59:53.248Z,999.32
2016-08-17T03:00:15.021Z,999.47
2016-08-17T03:00:41.530Z,1000.05
2016-08-17T03:01:08.087Z,999.48
2016-08-17T03:01:34.599Z,999.59
2016-08-17T03:01:56.349Z,999.03
2016-08-17T03:02:18.104Z,999.29
2016-08-17T03:02:40.970Z,999.20
2016-08-17T03:03:02.870Z,999.30
2016-08-17T03:03:29.486Z,999.16
2016-08-17T03:03:56.067Z,999.33
2016-08-17T03:04:17.962Z,999.34
2016-08-17T03:04:44.766Z,999.46
2016-08-17T03:05:06.927Z,999.37
2016-08-17T03:05:58.282Z,999.33
2016-08-17T03:06:20.074Z,999.31
2016-08-17T03:06:43.000Z,999.36
2016-08-17T03:07:09.601Z,999.34
2016-08-17T03:07:37.223Z,999.32
2016-08-17T03:08:03.787Z,999.33
2016-08-17T03:08:26.705Z,999.27
2016-08-17T03:08:48.423Z,999.39
2016-08-17T03:09:37.136Z,999.28
2016-08-17T03:09:59.130Z,999.43
2016-08-17T03:10:22.022Z,999.30
2016-08-17T03:10:43.866Z,999.64
2016-08-17T03:11:05.613Z,999.32
2016-08-17T03:11:32.143Z,999.32
2016-08-17T03:11:54.003Z,999.39
2016-08-17T03:12:15.748Z,999.34
2016-08-17T03:12:37.681Z,999.14
2016-08-17T03:12:59.694Z,999.21
2016-08-17T03:13:21.441Z,999.13
2016-08-17T03:13:43.203Z,999.61
2016-08-17T03:14:06.004Z,999.19
2016-08-17T03:14:27.796Z,999.38
2016-08-17T03:14:50.629Z,999.35
2016-08-17T03:15:12.704Z,999.34
2016-08-17T03:15:34.719Z,999.55
2016-08-17T03:15:56.554Z,999.27
2016-08-17T03:16:23.055Z,999.52
2016-08-17T03:16:44.853Z,999.36
2016-08-17T03:17:06.625Z,999.38
2016-08-17T03:17:28.434Z,999.30
2016-08-17T03:17:50.295Z,999.45
2016-08-17T03:18:12.195Z,999.17
2016-08-17T03:18:34.106Z,999.40
2016-08-17T03:18:55.997Z,999.40
2016-08-17T03:19:17.825Z,999.39
2016-08-17T03:19:39.655Z,999.38
2016-08-17T03:20:01.520Z,999.41
2016-08-17T03:20:24.503Z,999.14
2016-08-17T03:20:46.442Z,999.32
2016-08-17T03:21:09.360Z,999.37
2016-08-17T03:21:36.861Z,999.08
2016-08-17T03:22:03.615Z,999.29
2016-08-17T03:22:30.276Z,999.21
2016-08-17T03:22:53.114Z,999.40
2016-08-17T03:23:15.063Z,999.46
2016-08-17T03:23:37.962Z,999.38
2016-08-17T03:23:59.888Z,999.28
2016-08-17T03:24:21.732Z,999.38
2016-08-17T03:24:43.600Z,999.31
2016-08-17T03:25:06.568Z,999.46
2016-08-17T03:25:34.427Z,999.26
2016-08-17T03:25:56.204Z,999.36
2016-08-17T03:26:18.048Z,999.26
2016-08-17T03:26:44.594Z,999.28
2016-08-17T03:27:06.353Z,999.37
2016-08-17T03:27:29.144Z,999.34
2016-08-17T03:27:51.977Z,999.31
2016-08-17T03:28:13.946Z,999.58
2016-08-17T03:28:40.598Z,999.23
2016-08-17T03:29:02.676Z,999.07
2016-08-17T03:29:26.628Z,999.19
2016-08-17T03:29:48.615Z,999.35
2016-08-17T03:30:10.695Z,999.14
2016-08-17T03:30:33.985Z,999.14
2016-08-17T03:30:55.899Z,999.42
2016-08-17T03:31:17.760Z,999.26
2016-08-17T03:31:41.603Z,999.21
2016-08-17T03:32:03.610Z,999.28
2016-08-17T03:32:25.424Z,999.27
2016-08-17T03:32:52.190Z,999.32
2016-08-17T03:33:18.783Z,999.41
2016-08-17T03:33:45.520Z,999.40
2016-08-17T03:34:07.274Z,999.13
2016-08-17T03:34:29.008Z,999.28
2016-08-17T03:34:50.773Z,999.09
2016-08-17T03:35:13.523Z,999.09
2016-08-17T03:35:35.258Z,999.36
2016-08-17T03:35:57.018Z,999.30
2016-08-17T03:36:18.772Z,999.19
2016-08-17T03:36:40.515Z,999.64
2016-08-17T03:37:02.301Z,999.36
2016-08-17T03:37:24.067Z,999.25
2016-08-17T03:37:45.821Z,999.43
2016-08-17T03:38:12.489Z,999.32
2016-08-17T03:38:34.435Z,999.15
2016-08-17T03:39:00.944Z,999.26
2016-08-17T03:40:04.007Z,999.18
2016-08-17T03:40:25.827Z,999.39
2016-08-17T03:40:47.783Z,999.19
2016-08-17T03:41:09.595Z,999.37
2016-08-17T03:41:31.536Z,999.31
2016-08-17T03:41:53.627Z,999.20
2016-08-17T03:42:15.523Z,999.38
2016-08-17T03:42:45.047Z,999.10
2016-08-17T03:43:10.064Z,999.27
2016-08-17T03:43:31.883Z,999.26
2016-08-17T03:43:53.795Z,999.35
2016-08-17T03:44:15.709Z,999.40
2016-08-17T03:44:38.638Z,999.12
2016-08-17T03:45:00.536Z,999.49
2016-08-17T03:45:53.691Z,999.47
2016-08-17T03:46:15.510Z,999.32
2016-08-17T03:46:38.294Z,999.32
2016-08-17T03:47:00.301Z,999.26
2016-08-17T03:47:26.967Z,999.45
2016-08-17T03:47:48.881Z,999.49
2016-08-17T03:48:11.773Z,999.44
2016-08-17T03:48:33.629Z,999.27
2016-08-17T03:48:56.526Z,999.28
2016-08-17T03:49:18.441Z,999.31
2016-08-17T03:50:33.525Z,999.23
2016-08-17T03:50:55.260Z,999.31
2016-08-17T03:51:18.053Z,999.35
2016-08-17T03:51:42.366Z,999.35
2016-08-17T03:52:05.250Z,999.44
2016-08-17T03:52:27.009Z,999.31
2016-08-17T03:52:48.848Z,999.23
2016-08-17T03:53:10.636Z,999.48
2016-08-17T03:53:32.541Z,999.33
2016-08-17T03:54:22.157Z,999.31
2016-08-17T03:54:43.995Z,999.48
2016-08-17T03:55:05.796Z,999.57
2016-08-17T03:55:27.693Z,999.33
2016-08-17T03:55:49.482Z,999.34
2016-08-17T03:56:11.436Z,999.42
2016-08-17T03:56:33.310Z,999.22
2016-08-17T03:56:55.061Z,999.51
2016-08-17T03:57:16.923Z,999.49
2016-08-17T03:57:43.463Z,999.15
2016-08-17T03:58:10.004Z,999.39
2016-08-17T03:58:31.959Z,999.47
2016-08-17T03:58:53.907Z,999.58
2016-08-17T03:59:15.856Z,999.52
2016-08-17T03:59:37.744Z,999.50
2016-08-17T03:59:59.559Z,999.38
2016-08-17T04:00:21.316Z,999.51
2016-08-17T04:00:44.164Z,999.26
2016-08-17T04:01:05.997Z,999.32
2016-08-17T04:01:27.882Z,999.29
2016-08-17T04:01:54.586Z,999.45
2016-08-17T04:02:16.495Z,999.63
2016-08-17T04:02:38.438Z,999.37
2016-08-17T04:03:00.486Z,999.51
2016-08-17T04:03:22.319Z,999.51
2016-08-17T04:03:48.882Z,999.28
2016-08-17T04:04:10.635Z,999.64
2016-08-17T04:04:37.324Z,999.36
2016-08-17T04:04:59.188Z,999.35
2016-08-17T04:05:21.052Z,999.49
2016-08-17T04:05:43.172Z,999.60
2016-08-17T04:06:05.091Z,999.25
2016-08-17T04:06:28.090Z,999.44
2016-08-17T04:06:54.755Z,999.15
2016-08-17T04:07:21.441Z,999.38
2016-08-17T04:07:43.472Z,999.27
2016-08-17T04:08:05.538Z,999.46
2016-08-17T04:08:28.462Z,999.48
2016-08-17T04:08:50.395Z,999.26
2016-08-17T04:09:12.414Z,999.44
2016-08-17T04:09:39.140Z,999.51
2016-08-17T04:10:01.095Z,999.31
2016-08-17T04:10:27.693Z,999.43
2016-08-17T04:10:49.571Z,999.46
2016-08-17T04:11:11.501Z,999.56
2016-08-17T04:11:33.547Z,999.56
2016-08-17T04:11:55.510Z,999.59
2016-08-17T04:12:17.441Z,999.43
2016-08-17T04:12:39.412Z,999.63
2016-08-17T04:13:01.368Z,999.58
2016-08-17T04:13:24.288Z,999.47
2016-08-17T04:13:46.263Z,999.53
2016-08-17T04:14:12.799Z,999.38
2016-08-17T04:15:01.623Z,999.27
2016-08-17T04:15:23.399Z,999.52
2016-08-17T04:15:45.156Z,999.72
2016-08-17T04:16:06.951Z,999.61
2016-08-17T04:16:59.985Z,999.41
2016-08-17T04:17:21.809Z,999.59
2016-08-17T04:17:43.576Z,999.22
2016-08-17T04:18:05.336Z,999.45
2016-08-17T04:18:29.072Z,999.57
2016-08-17T04:18:51.844Z,999.39
2016-08-17T04:19:13.581Z,999.52
2016-08-17T04:19:35.360Z,999.77
2016-08-17T04:19:57.137Z,999.56
2016-08-17T04:20:18.967Z,999.29
2016-08-17T04:20:40.912Z,999.41
2016-08-17T04:21:02.650Z,999.50
2016-08-17T04:21:24.401Z,999.43
2016-08-17T04:21:46.176Z,999.62
2016-08-17T04:22:08.894Z,999.62
2016-08-17T04:22:30.627Z,999.77
2016-08-17T04:22:52.391Z,999.52
2016-08-17T04:23:16.116Z,999.30
2016-08-17T04:23:37.838Z,999.58
2016-08-17T04:23:59.684Z,999.47
2016-08-17T04:24:26.208Z,999.63
2016-08-17T04:24:47.937Z,999.56
2016-08-17T04:25:36.175Z,999.36
2016-08-17T04:25:57.903Z,999.43
2016-08-17T04:26:19.641Z,999.58
2016-08-17T04:26:41.380Z,999.56
2016-08-17T04:27:03.127Z,999.55
2016-08-17T04:27:24.865Z,999.31
2016-08-17T04:27:46.596Z,999.53
2016-08-17T04:28:08.317Z,999.40
2016-08-17T04:28:30.044Z,999.38
2016-08-17T04:28:51.760Z,999.58
2016-08-17T04:29:13.578Z,999.47
2016-08-17T04:29:35.357Z,999.60
2016-08-17T04:29:57.088Z,999.65
2016-08-17T04:30:18.818Z,999.57
2016-08-17T04:30:40.564Z,999.57
2016-08-17T04:31:03.365Z,999.64
2016-08-17T04:31:26.102Z,999.58
2016-08-17T04:31:48.836Z,999.65
2016-08-17T04:32:38.086Z,999.80
2016-08-17T04:32:59.830Z,999.98
2016-08-17T04:33:24.578Z,999.39
2016-08-17T04:33:46.314Z,999.45
2016-08-17T04:34:08.059Z,999.41
2016-08-17T04:34:30.871Z,999.64
2016-08-17T04:34:52.599Z,999.43
2016-08-17T04:35:14.316Z,999.51
2016-08-17T04:35:36.039Z,999.51
2016-08-17T04:35:57.800Z,999.45
2016-08-17T04:36:19.526Z,999.65
2016-08-17T04:36:41.258Z,999.51
2016-08-17T04:37:03.035Z,999.78
2016-08-17T04:37:24.750Z,999.72
2016-08-17T04:37:46.480Z,999.72
2016-08-17T04:38:08.218Z,999.87
2016-08-17T04:38:29.967Z,999.59
2016-08-17T04:38:51.841Z,999.57
2016-08-17T04:39:13.559Z,999.61
2016-08-17T04:39:35.288Z,999.79
2016-08-17T04:39:57.027Z,999.73
2016-08-17T04:40:18.762Z,999.65
2016-08-17T04:40:40.490Z,999.70
2016-08-17T04:41:02.212Z,999.54
2016-08-17T04:41:23.946Z,999.32
2016-08-17T04:41:45.670Z,999.35
2016-08-17T04:42:07.386Z,999.53
2016-08-17T04:42:29.103Z,999.58
2016-08-17T04:42:50.826Z,999.50
2016-08-17T04:43:12.556Z,999.51
2016-08-17T04:43:34.270Z,999.57
2016-08-17T04:43:56.100Z,999.41
2016-08-17T04:44:17.821Z,999.65
2016-08-17T04:44:39.551Z,999.70
2016-08-17T04:45:01.262Z,1000.09
2016-08-17T04:45:22.983Z,999.83
2016-08-17T04:45:44.769Z,999.46
2016-08-17T04:46:06.489Z,999.80
2016-08-17T04:46:28.238Z,999.27
2016-08-17T04:46:50.010Z,999.29
2016-08-17T04:47:11.828Z,999.49
2016-08-17T04:47:33.551Z,999.46
2016-08-17T04:47:55.277Z,999.43
2016-08-17T04:48:17.007Z,999.28
2016-08-17T04:48:38.739Z,999.44
2016-08-17T04:49:00.500Z,999.47
2016-08-17T04:49:22.215Z,999.52
2016-08-17T04:49:43.935Z,999.29
2016-08-17T04:50:05.658Z,999.72
2016-08-17T04:50:27.382Z,999.47
2016-08-17T04:50:49.105Z,999.59
2016-08-17T04:51:10.941Z,999.38
2016-08-17T04:51:32.704Z,999.36
2016-08-17T04:51:59.199Z,999.54
2016-08-17T04:52:20.927Z,999.43
2016-08-17T04:52:42.662Z,999.53
2016-08-17T04:53:04.391Z,999.31
2016-08-17T04:53:26.162Z,999.52
2016-08-17T04:53:47.945Z,999.50
2016-08-17T04:54:09.706Z,999.43
2016-08-17T04:54:57.933Z,999.40
2016-08-17T04:55:19.650Z,999.69
2016-08-17T04:55:41.377Z,999.55
2016-08-17T04:56:03.090Z,999.37
2016-08-17T04:56:24.831Z,999.69
2016-08-17T04:56:46.544Z,999.59
2016-08-17T04:57:08.294Z,999.26
2016-08-17T04:57:30.010Z,999.32
2016-08-17T04:57:56.507Z,999.48
2016-08-17T04:58:18.231Z,999.56
2016-08-17T04:58:39.945Z,999.32
2016-08-17T04:59:01.676Z,999.33
2016-08-17T04:59:23.395Z,999.32
2016-08-17T04:59:45.124Z,999.61
2016-08-17T05:00:06.890Z,999.48
2016-08-17T05:00:28.605Z,999.45
2016-08-17T05:00:50.333Z,999.45
2016-08-17T05:01:12.108Z,999.27
2016-08-17T05:01:33.924Z,999.56
2016-08-17T05:01:55.635Z,999.52
2016-08-17T05:02:17.354Z,999.59
2016-08-17T05:02:39.115Z,999.53
2016-08-17T05:03:00.928Z,999.40
2016-08-17T05:03:22.698Z,999.32
2016-08-17T05:03:44.419Z,999.42
2016-08-17T05:04:06.196Z,999.14
2016-08-17T05:04:27.914Z,999.36
2016-08-17T05:04:49.645Z,999.50
2016-08-17T05:05:11.357Z,999.58
2016-08-17T05:05:33.167Z,999.48
2016-08-17T05:05:54.888Z,999.54
2016-08-17T05:06:16.729Z,999.20
2016-08-17T05:06:38.452Z,999.28
2016-08-17T05:07:00.177Z,999.43
2016-08-17T05:07:21.907Z,999.45
2016-08-17T05:07:43.626Z,999.57
2016-08-17T05:08:05.440Z,999.56
2016-08-17T05:08:27.155Z,999.27
2016-08-17T05:08:48.872Z,999.21
2016-08-17T05:09:10.597Z,999.42
2016-08-17T05:09:32.331Z,999.42
2016-08-17T05:09:54.056Z,999.42
2016-08-17T05:10:15.814Z,999.47
2016-08-17T05:10:37.537Z,999.69
2016-08-17T05:10:59.270Z,999.62
2016-08-17T05:11:25.751Z,999.36
2016-08-17T05:11:48.474Z,999.38
2016-08-17T05:12:10.195Z,999.53
2016-08-17T05:12:31.993Z,999.42
2016-08-17T05:12:53.706Z,999.40
2016-08-17T05:13:15.440Z,999.68
2016-08-17T05:13:37.162Z,999.41
2016-08-17T05:13:58.881Z,999.46
2016-08-17T05:14:20.606Z,999.47
2016-08-17T05:14:42.347Z,999.33
2016-08-17T05:15:04.065Z,999.43
2016-08-17T05:15:25.783Z,999.46
2016-08-17T05:15:47.593Z,999.70
2016-08-17T05:16:09.325Z,999.55
2016-08-17T05:16:31.040Z,999.25
2016-08-17T05:16:52.842Z,999.70
2016-08-17T05:17:14.590Z,999.36
2016-08-17T05:17:36.318Z,999.41
2016-08-17T05:17:58.072Z,999.42
2016-08-17T05:18:19.781Z,999.53
2016-08-17T05:18:41.572Z,999.30
2016-08-17T05:19:03.413Z,999.34
2016-08-17T05:19:25.134Z,999.52
2016-08-17T05:19:46.851Z,999.58
2016-08-17T05:20:08.569Z,999.52
2016-08-17T05:20:30.350Z,999.32
2016-08-17T05:20:52.144Z,999.59
2016-08-17T05:21:13.874Z,999.59
2016-08-17T05:21:35.600Z,999.43
2016-08-17T05:21:57.312Z,999.44
2016-08-17T05:22:19.030Z,999.34
2016-08-17T05:22:40.756Z,999.39
2016-08-17T05:23:02.475Z,999.60
2016-08-17T05:23:24.212Z,999.40
2016-08-17T05:23:45.926Z,999.47
2016-08-17T05:24:07.681Z,999.48
2016-08-17T05:24:29.369Z,999.85